sensor_id;sensor_type;location;lat;lon;timestamp;temperature;humidity
2579;DHT22;1299;48.282;14.398;2023-08-17T00:01:35;20.80;99.90
2579;DHT22;1299;48.282;14.398;2023-08-17T00:04:02;20.80;99.90
2579;DHT22;1299;48.282;14.398;2023-08-17T00:06:29;20.80;99.90
2579;DHT22;1299;48.282;14.398;2023-08-17T00:08:56;20.70;99.90
2579;DHT22;1299;48.282;14.398;2023-08-17T00:11:23;20.70;99.90
2579;DHT22;1299;48.282;14.398;2023-08-17T00:13:50;20.60;99.90
2579;DHT22;1299;48.282;14.398;2023-08-17T00:16:17;20.70;99.90
2579;DHT22;1299;48.282;14.398;2023-08-17T00:18:45;20.70;99.90
2579;DHT22;1299;48.282;14.398;2023-08-17T00:21:13;20.70;99.90
2579;DHT22;1299;48.282;14.398;2023-08-17T00:23:39;20.60;99.90
2579;DHT22;1299;48.282;14.398;2023-08-17T00:26:07;20.50;99.90
2579;DHT22;1299;48.282;14.398;2023-08-17T00:28:34;20.40;99.90
2579;DHT22;1299;48.282;14.398;2023-08-17T00:31:01;20.40;99.90
2579;DHT22;1299;48.282;14.398;2023-08-17T00:33:29;20.40;99.90
2579;DHT22;1299;48.282;14.398;2023-08-17T00:35:57;20.20;99.90
2579;DHT22;1299;48.282;14.398;2023-08-17T00:38:24;20.20;99.90
2579;DHT22;1299;48.282;14.398;2023-08-17T00:40:51;20.10;99.90
2579;DHT22;1299;48.282;14.398;2023-08-17T00:43:18;20.20;99.90
2579;DHT22;1299;48.282;14.398;2023-08-17T00:45:46;20.30;99.90
2579;DHT22;1299;48.282;14.398;2023-08-17T00:48:14;20.30;99.90
2579;DHT22;1299;48.282;14.398;2023-08-17T00:50:41;20.30;99.90
2579;DHT22;1299;48.282;14.398;2023-08-17T00:53:10;20.30;99.90
2579;DHT22;1299;48.282;14.398;2023-08-17T00:55:39;20.30;99.90
2579;DHT22;1299;48.282;14.398;2023-08-17T00:58:06;20.20;99.90
2579;DHT22;1299;48.282;14.398;2023-08-17T01:00:33;20.10;99.90
2579;DHT22;1299;48.282;14.398;2023-08-17T01:03:00;20.10;99.90
2579;DHT22;1299;48.282;14.398;2023-08-17T01:05:27;20.10;99.90
2579;DHT22;1299;48.282;14.398;2023-08-17T01:07:54;20.10;99.90
2579;DHT22;1299;48.282;14.398;2023-08-17T01:10:23;20.10;99.90
2579;DHT22;1299;48.282;14.398;2023-08-17T01:13:10;20.10;99.90
2579;DHT22;1299;48.282;14.398;2023-08-17T01:15:40;20.00;99.90
2579;DHT22;1299;48.282;14.398;2023-08-17T01:18:17;20.00;99.90
2579;DHT22;1299;48.282;14.398;2023-08-17T01:20:48;19.90;99.90
2579;DHT22;1299;48.282;14.398;2023-08-17T01:23:17;19.90;99.90
2579;DHT22;1299;48.282;14.398;2023-08-17T01:25:44;20.00;99.90
2579;DHT22;1299;48.282;14.398;2023-08-17T01:28:11;19.90;99.90
2579;DHT22;1299;48.282;14.398;2023-08-17T01:30:42;19.90;99.90
2579;DHT22;1299;48.282;14.398;2023-08-17T01:33:15;19.90;99.90
2579;DHT22;1299;48.282;14.398;2023-08-17T01:35:48;19.80;99.90
2579;DHT22;1299;48.282;14.398;2023-08-17T01:38:23;19.90;99.90
2579;DHT22;1299;48.282;14.398;2023-08-17T01:40:52;19.90;99.90
2579;DHT22;1299;48.282;14.398;2023-08-17T01:43:20;19.90;99.90
2579;DHT22;1299;48.282;14.398;2023-08-17T01:45:47;19.90;99.90
2579;DHT22;1299;48.282;14.398;2023-08-17T01:48:14;19.90;99.90
2579;DHT22;1299;48.282;14.398;2023-08-17T01:50:41;19.70;99.90
2579;DHT22;1299;48.282;14.398;2023-08-17T01:53:08;19.80;99.90
2579;DHT22;1299;48.282;14.398;2023-08-17T01:55:36;19.80;99.90
2579;DHT22;1299;48.282;14.398;2023-08-17T01:58:03;19.80;99.90
2579;DHT22;1299;48.282;14.398;2023-08-17T02:00:30;19.80;99.90
2579;DHT22;1299;48.282;14.398;2023-08-17T02:02:57;19.60;99.90
2579;DHT22;1299;48.282;14.398;2023-08-17T02:05:24;19.70;99.90
2579;DHT22;1299;48.282;14.398;2023-08-17T02:07:53;19.70;99.90
2579;DHT22;1299;48.282;14.398;2023-08-17T02:10:20;19.70;99.90
2579;DHT22;1299;48.282;14.398;2023-08-17T02:12:49;19.70;99.90
2579;DHT22;1299;48.282;14.398;2023-08-17T02:15:16;19.70;99.90
2579;DHT22;1299;48.282;14.398;2023-08-17T02:17:43;19.70;99.90
2579;DHT22;1299;48.282;14.398;2023-08-17T02:20:10;19.40;99.90
2579;DHT22;1299;48.282;14.398;2023-08-17T02:22:39;19.30;99.90
2579;DHT22;1299;48.282;14.398;2023-08-17T02:25:07;19.30;99.90
2579;DHT22;1299;48.282;14.398;2023-08-17T02:27:34;19.30;99.90
2579;DHT22;1299;48.282;14.398;2023-08-17T02:30:03;19.40;99.90
2579;DHT22;1299;48.282;14.398;2023-08-17T02:32:30;19.50;99.90
2579;DHT22;1299;48.282;14.398;2023-08-17T02:34:57;19.50;99.90
2579;DHT22;1299;48.282;14.398;2023-08-17T02:37:23;19.50;99.90
2579;DHT22;1299;48.282;14.398;2023-08-17T02:39:50;19.50;99.90
2579;DHT22;1299;48.282;14.398;2023-08-17T02:42:17;19.50;99.90
2579;DHT22;1299;48.282;14.398;2023-08-17T02:44:44;19.40;99.90
2579;DHT22;1299;48.282;14.398;2023-08-17T02:47:13;19.40;99.90
2579;DHT22;1299;48.282;14.398;2023-08-17T02:49:40;19.40;99.90
2579;DHT22;1299;48.282;14.398;2023-08-17T02:52:07;19.40;99.90
2579;DHT22;1299;48.282;14.398;2023-08-17T02:54:34;19.40;99.90
2579;DHT22;1299;48.282;14.398;2023-08-17T02:57:01;19.40;99.90
2579;DHT22;1299;48.282;14.398;2023-08-17T02:59:28;19.30;99.90
2579;DHT22;1299;48.282;14.398;2023-08-17T03:01:55;19.40;99.90
2579;DHT22;1299;48.282;14.398;2023-08-17T03:04:24;19.30;99.90
2579;DHT22;1299;48.282;14.398;2023-08-17T03:06:51;19.30;99.90
2579;DHT22;1299;48.282;14.398;2023-08-17T03:09:18;19.30;99.90
2579;DHT22;1299;48.282;14.398;2023-08-17T03:11:45;19.30;99.90
2579;DHT22;1299;48.282;14.398;2023-08-17T03:14:12;19.20;99.90
2579;DHT22;1299;48.282;14.398;2023-08-17T03:16:38;19.20;99.90
2579;DHT22;1299;48.282;14.398;2023-08-17T03:19:06;19.10;99.90
2579;DHT22;1299;48.282;14.398;2023-08-17T03:21:38;19.10;99.90
2579;DHT22;1299;48.282;14.398;2023-08-17T03:24:06;19.10;99.90
2579;DHT22;1299;48.282;14.398;2023-08-17T03:26:33;19.10;99.90
2579;DHT22;1299;48.282;14.398;2023-08-17T03:29:00;19.10;99.90
2579;DHT22;1299;48.282;14.398;2023-08-17T03:31:27;19.10;99.90
2579;DHT22;1299;48.282;14.398;2023-08-17T03:33:53;19.00;99.90
2579;DHT22;1299;48.282;14.398;2023-08-17T03:36:22;19.00;99.90
2579;DHT22;1299;48.282;14.398;2023-08-17T03:38:50;19.00;99.90
2579;DHT22;1299;48.282;14.398;2023-08-17T03:41:17;19.00;99.90
2579;DHT22;1299;48.282;14.398;2023-08-17T03:43:44;19.00;99.90
2579;DHT22;1299;48.282;14.398;2023-08-17T03:46:12;19.00;99.90
2579;DHT22;1299;48.282;14.398;2023-08-17T03:48:38;19.00;99.90
2579;DHT22;1299;48.282;14.398;2023-08-17T03:51:05;19.00;99.90
2579;DHT22;1299;48.282;14.398;2023-08-17T03:53:32;19.00;99.90
2579;DHT22;1299;48.282;14.398;2023-08-17T03:56:01;18.90;99.90
2579;DHT22;1299;48.282;14.398;2023-08-17T03:58:28;18.90;99.90
2579;DHT22;1299;48.282;14.398;2023-08-17T04:00:59;19.00;99.90
2579;DHT22;1299;48.282;14.398;2023-08-17T04:03:26;18.90;99.90
2579;DHT22;1299;48.282;14.398;2023-08-17T04:05:53;18.90;99.90
2579;DHT22;1299;48.282;14.398;2023-08-17T04:08:20;19.00;99.90
2579;DHT22;1299;48.282;14.398;2023-08-17T04:10:47;19.00;99.90
2579;DHT22;1299;48.282;14.398;2023-08-17T04:13:15;19.00;99.90
2579;DHT22;1299;48.282;14.398;2023-08-17T04:15:42;18.90;99.90
2579;DHT22;1299;48.282;14.398;2023-08-17T04:18:09;18.90;99.90
2579;DHT22;1299;48.282;14.398;2023-08-17T04:20:36;18.90;99.90
2579;DHT22;1299;48.282;14.398;2023-08-17T04:23:03;18.90;99.90
2579;DHT22;1299;48.282;14.398;2023-08-17T04:25:30;18.80;99.90
2579;DHT22;1299;48.282;14.398;2023-08-17T04:27:57;18.90;99.90
2579;DHT22;1299;48.282;14.398;2023-08-17T04:30:25;19.00;99.90
2579;DHT22;1299;48.282;14.398;2023-08-17T04:32:52;19.00;99.90
2579;DHT22;1299;48.282;14.398;2023-08-17T04:35:19;19.00;99.90
2579;DHT22;1299;48.282;14.398;2023-08-17T04:37:46;19.00;99.90
2579;DHT22;1299;48.282;14.398;2023-08-17T04:40:13;19.00;99.90
2579;DHT22;1299;48.282;14.398;2023-08-17T04:42:40;19.00;99.90
2579;DHT22;1299;48.282;14.398;2023-08-17T04:45:08;19.00;99.90
2579;DHT22;1299;48.282;14.398;2023-08-17T04:47:36;19.10;99.90
2579;DHT22;1299;48.282;14.398;2023-08-17T04:50:04;19.20;99.90
2579;DHT22;1299;48.282;14.398;2023-08-17T04:52:31;19.30;99.90
2579;DHT22;1299;48.282;14.398;2023-08-17T04:54:58;19.30;99.90
2579;DHT22;1299;48.282;14.398;2023-08-17T04:57:25;19.40;99.90
2579;DHT22;1299;48.282;14.398;2023-08-17T04:59:53;19.40;99.90
2579;DHT22;1299;48.282;14.398;2023-08-17T05:02:20;19.40;99.90
2579;DHT22;1299;48.282;14.398;2023-08-17T05:04:48;19.40;99.90
2579;DHT22;1299;48.282;14.398;2023-08-17T05:07:15;19.40;99.90
2579;DHT22;1299;48.282;14.398;2023-08-17T05:09:42;19.40;99.90
2579;DHT22;1299;48.282;14.398;2023-08-17T05:12:09;19.50;99.90
2579;DHT22;1299;48.282;14.398;2023-08-17T05:14:36;19.60;99.90
2579;DHT22;1299;48.282;14.398;2023-08-17T05:17:03;19.60;99.90
2579;DHT22;1299;48.282;14.398;2023-08-17T05:19:30;19.70;99.90
2579;DHT22;1299;48.282;14.398;2023-08-17T05:21:59;19.80;99.90
2579;DHT22;1299;48.282;14.398;2023-08-17T05:24:26;20.00;99.90
2579;DHT22;1299;48.282;14.398;2023-08-17T05:26:54;20.30;99.90
2579;DHT22;1299;48.282;14.398;2023-08-17T05:29:21;20.70;99.90
2579;DHT22;1299;48.282;14.398;2023-08-17T05:31:48;21.00;99.90
2579;DHT22;1299;48.282;14.398;2023-08-17T05:34:14;21.30;99.90
2579;DHT22;1299;48.282;14.398;2023-08-17T05:36:41;21.80;99.90
2579;DHT22;1299;48.282;14.398;2023-08-17T05:39:10;22.20;99.90
2579;DHT22;1299;48.282;14.398;2023-08-17T05:41:36;22.90;99.90
2579;DHT22;1299;48.282;14.398;2023-08-17T05:44:04;24.10;99.90
2579;DHT22;1299;48.282;14.398;2023-08-17T05:46:32;24.90;99.90
2579;DHT22;1299;48.282;14.398;2023-08-17T05:48:59;25.50;99.90
2579;DHT22;1299;48.282;14.398;2023-08-17T05:51:26;26.40;99.90
2579;DHT22;1299;48.282;14.398;2023-08-17T05:53:53;27.30;99.90
2579;DHT22;1299;48.282;14.398;2023-08-17T05:56:22;28.00;99.90
2579;DHT22;1299;48.282;14.398;2023-08-17T05:58:48;28.80;99.90
2579;DHT22;1299;48.282;14.398;2023-08-17T06:01:15;29.40;99.90
2579;DHT22;1299;48.282;14.398;2023-08-17T06:03:42;29.90;99.90
2579;DHT22;1299;48.282;14.398;2023-08-17T06:06:09;30.20;99.90
2579;DHT22;1299;48.282;14.398;2023-08-17T06:08:36;30.20;99.90
2579;DHT22;1299;48.282;14.398;2023-08-17T06:11:03;30.40;99.90
2579;DHT22;1299;48.282;14.398;2023-08-17T06:13:31;30.80;99.90
2579;DHT22;1299;48.282;14.398;2023-08-17T06:16:00;31.20;99.90
2579;DHT22;1299;48.282;14.398;2023-08-17T06:18:28;31.50;99.80
2579;DHT22;1299;48.282;14.398;2023-08-17T06:20:55;31.50;99.90
2579;DHT22;1299;48.282;14.398;2023-08-17T06:23:23;30.10;96.90
2579;DHT22;1299;48.282;14.398;2023-08-17T06:25:50;30.80;98.40
2579;DHT22;1299;48.282;14.398;2023-08-17T06:28:17;32.20;97.20
2579;DHT22;1299;48.282;14.398;2023-08-17T06:30:46;31.20;96.60
2579;DHT22;1299;48.282;14.398;2023-08-17T06:33:13;30.60;99.10
2579;DHT22;1299;48.282;14.398;2023-08-17T06:35:40;29.00;99.60
2579;DHT22;1299;48.282;14.398;2023-08-17T06:38:06;28.70;99.90
2579;DHT22;1299;48.282;14.398;2023-08-17T06:40:34;27.00;99.90
2579;DHT22;1299;48.282;14.398;2023-08-17T06:43:00;27.80;99.90
2579;DHT22;1299;48.282;14.398;2023-08-17T06:45:27;27.10;99.90
2579;DHT22;1299;48.282;14.398;2023-08-17T06:47:56;25.10;99.90
2579;DHT22;1299;48.282;14.398;2023-08-17T06:50:23;25.30;99.90
2579;DHT22;1299;48.282;14.398;2023-08-17T06:52:49;25.90;99.90
2579;DHT22;1299;48.282;14.398;2023-08-17T06:55:17;26.90;99.90
2579;DHT22;1299;48.282;14.398;2023-08-17T06:57:44;25.20;99.90
2579;DHT22;1299;48.282;14.398;2023-08-17T07:00:11;25.40;99.90
2579;DHT22;1299;48.282;14.398;2023-08-17T07:02:38;25.10;99.90
2579;DHT22;1299;48.282;14.398;2023-08-17T07:05:07;25.60;99.90
2579;DHT22;1299;48.282;14.398;2023-08-17T07:07:35;25.20;99.90
2579;DHT22;1299;48.282;14.398;2023-08-17T07:10:05;25.10;99.90
2579;DHT22;1299;48.282;14.398;2023-08-17T07:12:33;24.70;99.90
2579;DHT22;1299;48.282;14.398;2023-08-17T07:15:00;24.40;99.90
2579;DHT22;1299;48.282;14.398;2023-08-17T07:17:27;24.40;99.90
2579;DHT22;1299;48.282;14.398;2023-08-17T07:19:53;24.70;99.90
2579;DHT22;1299;48.282;14.398;2023-08-17T07:22:22;25.40;99.90
2579;DHT22;1299;48.282;14.398;2023-08-17T07:24:49;25.50;99.90
2579;DHT22;1299;48.282;14.398;2023-08-17T07:27:16;25.10;99.90
2579;DHT22;1299;48.282;14.398;2023-08-17T07:29:42;25.40;99.90
2579;DHT22;1299;48.282;14.398;2023-08-17T07:32:09;25.00;99.90
2579;DHT22;1299;48.282;14.398;2023-08-17T07:34:36;24.70;99.90
2579;DHT22;1299;48.282;14.398;2023-08-17T07:37:04;24.40;99.90
2579;DHT22;1299;48.282;14.398;2023-08-17T07:39:33;24.90;99.90
2579;DHT22;1299;48.282;14.398;2023-08-17T07:41:59;24.20;99.90
2579;DHT22;1299;48.282;14.398;2023-08-17T07:44:26;24.50;99.90
2579;DHT22;1299;48.282;14.398;2023-08-17T07:46:57;25.00;99.90
2579;DHT22;1299;48.282;14.398;2023-08-17T07:49:24;25.20;99.90
2579;DHT22;1299;48.282;14.398;2023-08-17T07:51:51;25.70;99.90
2579;DHT22;1299;48.282;14.398;2023-08-17T07:54:18;25.90;99.90
2579;DHT22;1299;48.282;14.398;2023-08-17T07:56:47;25.20;99.90
2579;DHT22;1299;48.282;14.398;2023-08-17T07:59:14;25.90;99.90
2579;DHT22;1299;48.282;14.398;2023-08-17T08:01:40;25.60;99.90
2579;DHT22;1299;48.282;14.398;2023-08-17T08:04:07;25.50;99.90
2579;DHT22;1299;48.282;14.398;2023-08-17T08:06:34;25.70;99.90
2579;DHT22;1299;48.282;14.398;2023-08-17T08:09:01;24.90;99.90
2579;DHT22;1299;48.282;14.398;2023-08-17T08:11:28;25.20;99.90
2579;DHT22;1299;48.282;14.398;2023-08-17T08:13:58;25.50;99.90
2579;DHT22;1299;48.282;14.398;2023-08-17T08:16:25;26.10;99.90
2579;DHT22;1299;48.282;14.398;2023-08-17T08:18:52;26.10;99.90
2579;DHT22;1299;48.282;14.398;2023-08-17T08:21:19;25.90;99.90
2579;DHT22;1299;48.282;14.398;2023-08-17T08:23:45;26.10;99.90
2579;DHT22;1299;48.282;14.398;2023-08-17T08:26:12;26.50;99.90
2579;DHT22;1299;48.282;14.398;2023-08-17T08:28:39;25.90;99.90
2579;DHT22;1299;48.282;14.398;2023-08-17T08:31:08;26.10;99.90
2579;DHT22;1299;48.282;14.398;2023-08-17T08:33:35;26.40;99.90
2579;DHT22;1299;48.282;14.398;2023-08-17T08:36:02;26.40;99.90
2579;DHT22;1299;48.282;14.398;2023-08-17T08:38:29;26.40;99.90
2579;DHT22;1299;48.282;14.398;2023-08-17T08:40:56;26.10;99.90
2579;DHT22;1299;48.282;14.398;2023-08-17T08:43:23;26.50;99.90
2579;DHT22;1299;48.282;14.398;2023-08-17T08:45:51;26.60;99.90
2579;DHT22;1299;48.282;14.398;2023-08-17T08:48:22;26.60;99.90
2579;DHT22;1299;48.282;14.398;2023-08-17T08:50:50;26.90;99.90
2579;DHT22;1299;48.282;14.398;2023-08-17T08:53:24;27.20;99.90
2579;DHT22;1299;48.282;14.398;2023-08-17T08:55:56;27.10;99.90
2579;DHT22;1299;48.282;14.398;2023-08-17T08:58:25;27.40;99.90
2579;DHT22;1299;48.282;14.398;2023-08-17T09:00:52;27.40;99.90
2579;DHT22;1299;48.282;14.398;2023-08-17T09:03:21;27.80;99.90
2579;DHT22;1299;48.282;14.398;2023-08-17T09:05:50;28.00;99.90
2579;DHT22;1299;48.282;14.398;2023-08-17T09:08:22;27.60;99.90
2579;DHT22;1299;48.282;14.398;2023-08-17T09:10:49;27.60;99.90
2579;DHT22;1299;48.282;14.398;2023-08-17T09:13:16;28.10;99.90
2579;DHT22;1299;48.282;14.398;2023-08-17T09:15:43;28.20;99.90
2579;DHT22;1299;48.282;14.398;2023-08-17T09:18:10;27.40;99.90
2579;DHT22;1299;48.282;14.398;2023-08-17T09:20:40;27.10;99.90
2579;DHT22;1299;48.282;14.398;2023-08-17T09:23:11;27.40;99.90
2579;DHT22;1299;48.282;14.398;2023-08-17T09:25:40;27.90;99.90
2579;DHT22;1299;48.282;14.398;2023-08-17T09:28:08;27.90;99.90
2579;DHT22;1299;48.282;14.398;2023-08-17T09:30:50;28.10;99.90
2579;DHT22;1299;48.282;14.398;2023-08-17T09:33:18;28.10;99.90
2579;DHT22;1299;48.282;14.398;2023-08-17T09:35:47;28.10;99.90
2579;DHT22;1299;48.282;14.398;2023-08-17T09:38:14;27.60;99.90
2579;DHT22;1299;48.282;14.398;2023-08-17T09:40:40;28.20;99.90
2579;DHT22;1299;48.282;14.398;2023-08-17T09:43:08;28.30;99.90
2579;DHT22;1299;48.282;14.398;2023-08-17T09:45:36;28.40;99.90
2579;DHT22;1299;48.282;14.398;2023-08-17T09:48:04;28.40;99.90
2579;DHT22;1299;48.282;14.398;2023-08-17T09:50:31;28.50;99.90
2579;DHT22;1299;48.282;14.398;2023-08-17T09:52:59;28.60;99.90
2579;DHT22;1299;48.282;14.398;2023-08-17T09:55:26;28.50;99.90
2579;DHT22;1299;48.282;14.398;2023-08-17T09:57:54;28.20;99.90
2579;DHT22;1299;48.282;14.398;2023-08-17T10:00:21;27.30;99.90
2579;DHT22;1299;48.282;14.398;2023-08-17T10:02:49;27.90;99.90
2579;DHT22;1299;48.282;14.398;2023-08-17T10:05:20;28.40;99.90
2579;DHT22;1299;48.282;14.398;2023-08-17T10:07:53;27.50;99.90
2579;DHT22;1299;48.282;14.398;2023-08-17T10:10:25;27.30;99.90
2579;DHT22;1299;48.282;14.398;2023-08-17T10:12:59;28.10;99.90
2579;DHT22;1299;48.282;14.398;2023-08-17T10:15:30;28.40;99.90
2579;DHT22;1299;48.282;14.398;2023-08-17T10:18:02;28.80;99.90
2579;DHT22;1299;48.282;14.398;2023-08-17T10:20:34;29.10;99.90
2579;DHT22;1299;48.282;14.398;2023-08-17T10:23:07;29.00;99.90
2579;DHT22;1299;48.282;14.398;2023-08-17T10:25:39;29.00;99.90
2579;DHT22;1299;48.282;14.398;2023-08-17T10:28:08;28.70;99.90
2579;DHT22;1299;48.282;14.398;2023-08-17T10:30:36;28.60;99.90
2579;DHT22;1299;48.282;14.398;2023-08-17T10:33:05;27.90;99.90
2579;DHT22;1299;48.282;14.398;2023-08-17T10:35:32;28.70;99.90
2579;DHT22;1299;48.282;14.398;2023-08-17T10:38:00;28.50;99.90
2579;DHT22;1299;48.282;14.398;2023-08-17T10:40:39;29.30;99.90
2579;DHT22;1299;48.282;14.398;2023-08-17T10:43:06;29.20;99.90
2579;DHT22;1299;48.282;14.398;2023-08-17T10:45:34;29.90;99.90
2579;DHT22;1299;48.282;14.398;2023-08-17T10:48:25;29.60;99.90
2579;DHT22;1299;48.282;14.398;2023-08-17T10:51:04;29.60;99.90
2579;DHT22;1299;48.282;14.398;2023-08-17T10:53:43;29.10;99.90
2579;DHT22;1299;48.282;14.398;2023-08-17T10:56:16;29.30;99.90
2579;DHT22;1299;48.282;14.398;2023-08-17T10:58:43;30.10;99.90
2579;DHT22;1299;48.282;14.398;2023-08-17T11:01:10;30.50;99.90
2579;DHT22;1299;48.282;14.398;2023-08-17T11:03:41;30.60;99.90
2579;DHT22;1299;48.282;14.398;2023-08-17T11:06:16;30.80;99.90
2579;DHT22;1299;48.282;14.398;2023-08-17T11:08:55;29.60;99.90
2579;DHT22;1299;48.282;14.398;2023-08-17T11:11:23;29.80;99.90
2579;DHT22;1299;48.282;14.398;2023-08-17T11:13:52;29.50;99.90
2579;DHT22;1299;48.282;14.398;2023-08-17T11:16:19;29.50;99.90
2579;DHT22;1299;48.282;14.398;2023-08-17T11:18:47;29.60;99.90
2579;DHT22;1299;48.282;14.398;2023-08-17T11:21:15;29.60;99.90
2579;DHT22;1299;48.282;14.398;2023-08-17T11:23:43;30.20;99.90
2579;DHT22;1299;48.282;14.398;2023-08-17T11:26:10;30.70;99.90
2579;DHT22;1299;48.282;14.398;2023-08-17T11:28:39;30.70;99.90
2579;DHT22;1299;48.282;14.398;2023-08-17T11:31:08;30.50;99.90
2579;DHT22;1299;48.282;14.398;2023-08-17T11:33:36;30.40;99.90
2579;DHT22;1299;48.282;14.398;2023-08-17T11:36:04;30.60;99.90
2579;DHT22;1299;48.282;14.398;2023-08-17T11:38:32;30.60;99.90
2579;DHT22;1299;48.282;14.398;2023-08-17T11:41:00;30.60;99.90
2579;DHT22;1299;48.282;14.398;2023-08-17T11:43:29;30.60;99.90
2579;DHT22;1299;48.282;14.398;2023-08-17T11:45:58;29.90;99.90
2579;DHT22;1299;48.282;14.398;2023-08-17T11:48:25;29.90;99.90
2579;DHT22;1299;48.282;14.398;2023-08-17T11:50:53;30.20;99.90
2579;DHT22;1299;48.282;14.398;2023-08-17T11:53:20;30.60;99.90
2579;DHT22;1299;48.282;14.398;2023-08-17T11:55:47;30.40;99.90
2579;DHT22;1299;48.282;14.398;2023-08-17T11:58:14;30.10;99.90
2579;DHT22;1299;48.282;14.398;2023-08-17T12:00:43;30.00;99.90
2579;DHT22;1299;48.282;14.398;2023-08-17T12:03:15;29.70;99.90
2579;DHT22;1299;48.282;14.398;2023-08-17T12:05:43;29.90;99.90
2579;DHT22;1299;48.282;14.398;2023-08-17T12:08:10;30.20;99.90
2579;DHT22;1299;48.282;14.398;2023-08-17T12:10:39;30.40;99.90
2579;DHT22;1299;48.282;14.398;2023-08-17T12:13:06;30.00;99.90
2579;DHT22;1299;48.282;14.398;2023-08-17T12:15:33;29.80;99.90
2579;DHT22;1299;48.282;14.398;2023-08-17T12:18:03;29.90;99.90
2579;DHT22;1299;48.282;14.398;2023-08-17T12:20:32;30.30;99.90
2579;DHT22;1299;48.282;14.398;2023-08-17T12:23:02;30.00;99.90
2579;DHT22;1299;48.282;14.398;2023-08-17T12:25:29;30.10;99.90
2579;DHT22;1299;48.282;14.398;2023-08-17T12:27:58;30.20;99.90
2579;DHT22;1299;48.282;14.398;2023-08-17T12:30:26;29.60;99.90
2579;DHT22;1299;48.282;14.398;2023-08-17T12:32:54;29.90;99.90
2579;DHT22;1299;48.282;14.398;2023-08-17T12:35:21;29.90;99.90
2579;DHT22;1299;48.282;14.398;2023-08-17T12:37:51;30.30;99.90
2579;DHT22;1299;48.282;14.398;2023-08-17T12:40:18;29.70;99.90
2579;DHT22;1299;48.282;14.398;2023-08-17T12:42:45;30.00;99.90
2579;DHT22;1299;48.282;14.398;2023-08-17T12:45:12;30.20;99.90
2579;DHT22;1299;48.282;14.398;2023-08-17T12:47:39;29.80;99.90
2579;DHT22;1299;48.282;14.398;2023-08-17T12:50:07;29.60;99.90
2579;DHT22;1299;48.282;14.398;2023-08-17T12:52:34;29.80;99.90
2579;DHT22;1299;48.282;14.398;2023-08-17T12:55:03;29.60;99.90
2579;DHT22;1299;48.282;14.398;2023-08-17T12:57:30;30.10;99.90
2579;DHT22;1299;48.282;14.398;2023-08-17T12:59:57;29.90;99.90
2579;DHT22;1299;48.282;14.398;2023-08-17T13:02:24;29.80;99.90
2579;DHT22;1299;48.282;14.398;2023-08-17T13:04:51;30.10;99.70
2579;DHT22;1299;48.282;14.398;2023-08-17T13:07:18;30.60;99.70
2579;DHT22;1299;48.282;14.398;2023-08-17T13:09:45;30.80;99.90
2579;DHT22;1299;48.282;14.398;2023-08-17T13:12:14;30.50;99.20
2579;DHT22;1299;48.282;14.398;2023-08-17T13:14:41;30.20;97.20
2579;DHT22;1299;48.282;14.398;2023-08-17T13:17:08;30.10;98.90
2579;DHT22;1299;48.282;14.398;2023-08-17T13:19:35;30.50;97.90
2579;DHT22;1299;48.282;14.398;2023-08-17T13:22:02;30.70;97.20
2579;DHT22;1299;48.282;14.398;2023-08-17T13:24:29;31.00;96.90
2579;DHT22;1299;48.282;14.398;2023-08-17T13:26:56;31.10;96.80
2579;DHT22;1299;48.282;14.398;2023-08-17T13:29:25;30.30;96.10
2579;DHT22;1299;48.282;14.398;2023-08-17T13:31:52;30.80;96.40
2579;DHT22;1299;48.282;14.398;2023-08-17T13:34:19;30.80;96.10
2579;DHT22;1299;48.282;14.398;2023-08-17T13:36:46;30.90;95.80
2579;DHT22;1299;48.282;14.398;2023-08-17T13:39:13;30.90;94.40
2579;DHT22;1299;48.282;14.398;2023-08-17T13:41:40;30.90;94.30
2579;DHT22;1299;48.282;14.398;2023-08-17T13:44:08;30.90;94.60
2579;DHT22;1299;48.282;14.398;2023-08-17T13:46:36;30.80;93.80
2579;DHT22;1299;48.282;14.398;2023-08-17T13:49:04;30.90;93.90
2579;DHT22;1299;48.282;14.398;2023-08-17T13:51:31;30.70;94.20
2579;DHT22;1299;48.282;14.398;2023-08-17T13:53:58;30.90;93.90
2579;DHT22;1299;48.282;14.398;2023-08-17T13:56:25;30.80;93.90
2579;DHT22;1299;48.282;14.398;2023-08-17T13:58:52;30.70;93.20
2579;DHT22;1299;48.282;14.398;2023-08-17T14:01:19;30.20;92.70
2579;DHT22;1299;48.282;14.398;2023-08-17T14:03:47;30.30;93.40
2579;DHT22;1299;48.282;14.398;2023-08-17T14:06:14;30.40;92.60
2579;DHT22;1299;48.282;14.398;2023-08-17T14:08:42;30.60;94.00
2579;DHT22;1299;48.282;14.398;2023-08-17T14:11:09;30.60;93.60
2579;DHT22;1299;48.282;14.398;2023-08-17T14:13:36;30.50;93.40
2579;DHT22;1299;48.282;14.398;2023-08-17T14:16:03;30.10;92.50
2579;DHT22;1299;48.282;14.398;2023-08-17T14:18:30;30.10;93.50
2579;DHT22;1299;48.282;14.398;2023-08-17T14:20:59;29.90;93.20
2579;DHT22;1299;48.282;14.398;2023-08-17T14:23:26;29.70;92.90
2579;DHT22;1299;48.282;14.398;2023-08-17T14:25:53;29.90;93.90
2579;DHT22;1299;48.282;14.398;2023-08-17T14:28:20;30.30;92.90
2579;DHT22;1299;48.282;14.398;2023-08-17T14:30:46;30.30;92.40
2579;DHT22;1299;48.282;14.398;2023-08-17T14:33:13;30.60;93.40
2579;DHT22;1299;48.282;14.398;2023-08-17T14:35:41;30.50;93.10
2579;DHT22;1299;48.282;14.398;2023-08-17T14:38:09;30.70;92.50
2579;DHT22;1299;48.282;14.398;2023-08-17T14:40:42;30.30;92.70
2579;DHT22;1299;48.282;14.398;2023-08-17T14:43:09;30.10;93.30
2579;DHT22;1299;48.282;14.398;2023-08-17T14:45:37;30.20;92.60
2579;DHT22;1299;48.282;14.398;2023-08-17T14:48:04;30.30;93.10
2579;DHT22;1299;48.282;14.398;2023-08-17T14:50:31;30.20;93.20
2579;DHT22;1299;48.282;14.398;2023-08-17T14:52:58;30.40;93.40
2579;DHT22;1299;48.282;14.398;2023-08-17T14:55:29;30.30;93.30
2579;DHT22;1299;48.282;14.398;2023-08-17T14:57:56;30.10;92.90
2579;DHT22;1299;48.282;14.398;2023-08-17T15:00:23;30.00;93.70
2579;DHT22;1299;48.282;14.398;2023-08-17T15:02:50;30.00;93.30
2579;DHT22;1299;48.282;14.398;2023-08-17T15:05:17;30.00;93.20
2579;DHT22;1299;48.282;14.398;2023-08-17T15:07:44;29.90;93.30
2579;DHT22;1299;48.282;14.398;2023-08-17T15:10:11;29.90;93.60
2579;DHT22;1299;48.282;14.398;2023-08-17T15:12:40;29.90;93.50
2579;DHT22;1299;48.282;14.398;2023-08-17T15:15:08;29.70;93.10
2579;DHT22;1299;48.282;14.398;2023-08-17T15:17:35;29.40;94.00
2579;DHT22;1299;48.282;14.398;2023-08-17T15:20:03;29.60;93.90
2579;DHT22;1299;48.282;14.398;2023-08-17T15:22:30;29.70;93.60
2579;DHT22;1299;48.282;14.398;2023-08-17T15:24:57;29.90;94.00
2579;DHT22;1299;48.282;14.398;2023-08-17T15:27:24;30.10;94.70
2579;DHT22;1299;48.282;14.398;2023-08-17T15:29:52;30.00;95.20
2579;DHT22;1299;48.282;14.398;2023-08-17T15:32:19;29.60;94.00
2579;DHT22;1299;48.282;14.398;2023-08-17T15:34:46;29.00;94.60
2579;DHT22;1299;48.282;14.398;2023-08-17T15:37:13;29.10;95.70
2579;DHT22;1299;48.282;14.398;2023-08-17T15:39:40;29.20;95.30
2579;DHT22;1299;48.282;14.398;2023-08-17T15:42:07;29.20;95.30
2579;DHT22;1299;48.282;14.398;2023-08-17T15:44:34;29.20;95.00
2579;DHT22;1299;48.282;14.398;2023-08-17T15:47:03;29.30;95.20
2579;DHT22;1299;48.282;14.398;2023-08-17T15:49:29;29.30;95.30